sensor_id;sensor_type;location;lat;lon;timestamp;P1;durP1;ratioP1;P2;durP2;ratioP2
23228;SDS011;11783;50.350;6.576;2022-07-06T00:01:19;4.47;;;2.30;;
23228;SDS011;11783;50.350;6.576;2022-07-06T00:03:45;4.53;;;2.40;;
23228;SDS011;11783;50.350;6.576;2022-07-06T00:06:11;5.38;;;2.30;;
23228;SDS011;11783;50.350;6.576;2022-07-06T00:08:37;5.97;;;2.13;;
23228;SDS011;11783;50.350;6.576;2022-07-06T00:11:02;5.22;;;2.03;;
23228;SDS011;11783;50.350;6.576;2022-07-06T00:13:28;6.28;;;2.20;;
23228;SDS011;11783;50.350;6.576;2022-07-06T00:15:53;6.13;;;2.47;;
23228;SDS011;11783;50.350;6.576;2022-07-06T00:18:18;5.85;;;2.33;;
23228;SDS011;11783;50.350;6.576;2022-07-06T00:20:44;6.28;;;2.20;;
23228;SDS011;11783;50.350;6.576;2022-07-06T00:23:09;4.22;;;2.03;;
23228;SDS011;11783;50.350;6.576;2022-07-06T00:25:35;6.35;;;2.15;;
23228;SDS011;11783;50.350;6.576;2022-07-06T00:28:00;6.43;;;2.08;;
23228;SDS011;11783;50.350;6.576;2022-07-06T00:30:26;6.25;;;1.90;;
23228;SDS011;11783;50.350;6.576;2022-07-06T00:32:51;5.45;;;2.40;;
23228;SDS011;11783;50.350;6.576;2022-07-06T00:35:17;5.10;;;2.03;;
23228;SDS011;11783;50.350;6.576;2022-07-06T00:37:42;5.13;;;2.10;;
23228;SDS011;11783;50.350;6.576;2022-07-06T00:40:07;5.07;;;1.60;;
23228;SDS011;11783;50.350;6.576;2022-07-06T00:42:43;7.35;;;1.73;;
23228;SDS011;11783;50.350;6.576;2022-07-06T00:45:11;7.57;;;1.60;;
23228;SDS011;11783;50.350;6.576;2022-07-06T00:47:38;4.93;;;1.50;;
23228;SDS011;11783;50.350;6.576;2022-07-06T00:50:04;4.57;;;1.58;;
23228;SDS011;11783;50.350;6.576;2022-07-06T00:52:44;5.18;;;1.70;;
23228;SDS011;11783;50.350;6.576;2022-07-06T00:55:11;5.15;;;1.67;;
23228;SDS011;11783;50.350;6.576;2022-07-06T00:57:37;4.45;;;1.50;;
23228;SDS011;11783;50.350;6.576;2022-07-06T01:00:04;5.93;;;1.70;;
23228;SDS011;11783;50.350;6.576;2022-07-06T01:02:31;5.80;;;1.60;;
23228;SDS011;11783;50.350;6.576;2022-07-06T01:04:56;5.63;;;1.50;;
23228;SDS011;11783;50.350;6.576;2022-07-06T01:07:22;5.25;;;1.88;;
23228;SDS011;11783;50.350;6.576;2022-07-06T01:09:47;4.82;;;1.75;;
23228;SDS011;11783;50.350;6.576;2022-07-06T01:12:13;5.10;;;1.92;;
23228;SDS011;11783;50.350;6.576;2022-07-06T01:14:38;4.55;;;1.70;;
23228;SDS011;11783;50.350;6.576;2022-07-06T01:17:04;4.63;;;1.73;;
23228;SDS011;11783;50.350;6.576;2022-07-06T01:19:30;4.97;;;2.10;;
23228;SDS011;11783;50.350;6.576;2022-07-06T01:21:55;7.93;;;2.47;;
23228;SDS011;11783;50.350;6.576;2022-07-06T01:24:21;4.32;;;2.05;;
23228;SDS011;11783;50.350;6.576;2022-07-06T01:26:46;5.28;;;2.15;;
23228;SDS011;11783;50.350;6.576;2022-07-06T01:29:12;6.13;;;2.13;;
23228;SDS011;11783;50.350;6.576;2022-07-06T01:31:44;4.32;;;1.95;;
23228;SDS011;11783;50.350;6.576;2022-07-06T01:34:12;3.47;;;1.80;;
23228;SDS011;11783;50.350;6.576;2022-07-06T01:36:38;5.45;;;2.13;;
23228;SDS011;11783;50.350;6.576;2022-07-06T01:39:03;3.40;;;2.15;;
23228;SDS011;11783;50.350;6.576;2022-07-06T01:41:29;3.78;;;1.90;;
23228;SDS011;11783;50.350;6.576;2022-07-06T01:43:54;5.15;;;2.05;;
23228;SDS011;11783;50.350;6.576;2022-07-06T01:46:20;5.85;;;2.55;;
23228;SDS011;11783;50.350;6.576;2022-07-06T01:48:45;5.30;;;2.20;;
23228;SDS011;11783;50.350;6.576;2022-07-06T01:51:11;4.57;;;2.05;;
23228;SDS011;11783;50.350;6.576;2022-07-06T01:53:39;6.95;;;2.28;;
23228;SDS011;11783;50.350;6.576;2022-07-06T01:56:05;3.80;;;2.05;;
23228;SDS011;11783;50.350;6.576;2022-07-06T01:58:30;3.80;;;2.15;;
23228;SDS011;11783;50.350;6.576;2022-07-06T02:00:56;7.82;;;2.33;;
23228;SDS011;11783;50.350;6.576;2022-07-06T02:03:22;5.13;;;2.28;;
23228;SDS011;11783;50.350;6.576;2022-07-06T02:05:47;4.38;;;2.45;;
23228;SDS011;11783;50.350;6.576;2022-07-06T02:08:13;5.55;;;2.28;;
23228;SDS011;11783;50.350;6.576;2022-07-06T02:10:38;6.32;;;2.63;;
23228;SDS011;11783;50.350;6.576;2022-07-06T02:13:04;7.13;;;2.75;;
23228;SDS011;11783;50.350;6.576;2022-07-06T02:15:29;5.05;;;2.30;;
23228;SDS011;11783;50.350;6.576;2022-07-06T02:17:54;5.03;;;2.40;;
23228;SDS011;11783;50.350;6.576;2022-07-06T02:20:20;6.70;;;2.53;;
23228;SDS011;11783;50.350;6.576;2022-07-06T02:22:45;5.78;;;2.50;;
23228;SDS011;11783;50.350;6.576;2022-07-06T02:25:10;5.32;;;2.47;;
23228;SDS011;11783;50.350;6.576;2022-07-06T02:27:36;4.35;;;2.42;;
23228;SDS011;11783;50.350;6.576;2022-07-06T02:30:01;6.05;;;3.00;;
23228;SDS011;11783;50.350;6.576;2022-07-06T02:32:26;6.75;;;2.60;;
23228;SDS011;11783;50.350;6.576;2022-07-06T02:34:52;10.52;;;3.00;;
23228;SDS011;11783;50.350;6.576;2022-07-06T02:37:17;6.13;;;2.60;;
23228;SDS011;11783;50.350;6.576;2022-07-06T02:39:43;5.45;;;2.25;;
23228;SDS011;11783;50.350;6.576;2022-07-06T02:42:08;4.53;;;2.40;;
23228;SDS011;11783;50.350;6.576;2022-07-06T02:44:34;3.58;;;2.30;;
23228;SDS011;11783;50.350;6.576;2022-07-06T02:46:59;5.28;;;2.80;;
23228;SDS011;11783;50.350;6.576;2022-07-06T02:49:24;7.15;;;2.50;;
23228;SDS011;11783;50.350;6.576;2022-07-06T02:51:50;6.68;;;2.60;;
23228;SDS011;11783;50.350;6.576;2022-07-06T02:54:15;5.80;;;2.80;;
23228;SDS011;11783;50.350;6.576;2022-07-06T02:56:40;5.47;;;2.63;;
23228;SDS011;11783;50.350;6.576;2022-07-06T02:59:06;5.63;;;2.78;;
23228;SDS011;11783;50.350;6.576;2022-07-06T03:01:31;5.05;;;2.58;;
23228;SDS011;11783;50.350;6.576;2022-07-06T03:03:56;6.63;;;3.13;;
23228;SDS011;11783;50.350;6.576;2022-07-06T03:06:22;6.20;;;2.90;;
23228;SDS011;11783;50.350;6.576;2022-07-06T03:08:47;7.45;;;3.03;;
23228;SDS011;11783;50.350;6.576;2022-07-06T03:11:13;8.32;;;3.20;;
23228;SDS011;11783;50.350;6.576;2022-07-06T03:13:38;6.43;;;3.30;;
23228;SDS011;11783;50.350;6.576;2022-07-06T03:16:04;5.93;;;3.20;;
23228;SDS011;11783;50.350;6.576;2022-07-06T03:18:29;5.40;;;2.88;;
23228;SDS011;11783;50.350;6.576;2022-07-06T03:20:54;5.43;;;3.10;;
23228;SDS011;11783;50.350;6.576;2022-07-06T03:23:20;6.07;;;3.10;;
23228;SDS011;11783;50.350;6.576;2022-07-06T03:25:45;9.32;;;2.95;;
23228;SDS011;11783;50.350;6.576;2022-07-06T03:28:11;5.18;;;3.08;;
23228;SDS011;11783;50.350;6.576;2022-07-06T03:30:36;7.57;;;3.38;;
23228;SDS011;11783;50.350;6.576;2022-07-06T03:33:02;5.75;;;3.20;;
23228;SDS011;11783;50.350;6.576;2022-07-06T03:35:27;5.82;;;3.35;;
23228;SDS011;11783;50.350;6.576;2022-07-06T03:37:52;6.55;;;3.30;;
23228;SDS011;11783;50.350;6.576;2022-07-06T03:40:18;7.85;;;3.55;;
23228;SDS011;11783;50.350;6.576;2022-07-06T03:42:43;5.38;;;3.58;;
23228;SDS011;11783;50.350;6.576;2022-07-06T03:45:09;6.28;;;3.20;;
23228;SDS011;11783;50.350;6.576;2022-07-06T03:47:34;6.63;;;3.38;;
23228;SDS011;11783;50.350;6.576;2022-07-06T03:50:00;4.82;;;3.17;;
23228;SDS011;11783;50.350;6.576;2022-07-06T03:52:25;7.22;;;3.50;;
23228;SDS011;11783;50.350;6.576;2022-07-06T03:54:50;7.90;;;3.80;;
23228;SDS011;11783;50.350;6.576;2022-07-06T03:57:16;8.02;;;3.58;;
23228;SDS011;11783;50.350;6.576;2022-07-06T03:59:41;6.72;;;3.90;;
23228;SDS011;11783;50.350;6.576;2022-07-06T04:02:07;6.50;;;3.35;;
23228;SDS011;11783;50.350;6.576;2022-07-06T04:04:33;6.75;;;3.53;;
23228;SDS011;11783;50.350;6.576;2022-07-06T04:06:59;7.85;;;3.80;;
23228;SDS011;11783;50.350;6.576;2022-07-06T04:09:24;5.72;;;3.40;;
23228;SDS011;11783;50.350;6.576;2022-07-06T04:11:50;8.10;;;4.00;;
23228;SDS011;11783;50.350;6.576;2022-07-06T04:14:15;10.93;;;4.30;;
23228;SDS011;11783;50.350;6.576;2022-07-06T04:16:41;8.77;;;4.07;;
23228;SDS011;11783;50.350;6.576;2022-07-06T04:19:06;10.13;;;4.25;;
23228;SDS011;11783;50.350;6.576;2022-07-06T04:21:31;7.68;;;3.92;;
23228;SDS011;11783;50.350;6.576;2022-07-06T04:23:57;8.20;;;3.85;;
23228;SDS011;11783;50.350;6.576;2022-07-06T04:26:22;9.30;;;4.20;;
23228;SDS011;11783;50.350;6.576;2022-07-06T04:28:48;7.80;;;3.97;;
23228;SDS011;11783;50.350;6.576;2022-07-06T04:31:13;8.73;;;3.85;;
23228;SDS011;11783;50.350;6.576;2022-07-06T04:33:40;5.90;;;3.70;;
23228;SDS011;11783;50.350;6.576;2022-07-06T04:36:09;10.25;;;4.57;;
23228;SDS011;11783;50.350;6.576;2022-07-06T04:38:35;6.63;;;3.83;;
23228;SDS011;11783;50.350;6.576;2022-07-06T04:41:01;10.13;;;4.47;;
23228;SDS011;11783;50.350;6.576;2022-07-06T04:43:26;8.15;;;4.45;;
23228;SDS011;11783;50.350;6.576;2022-07-06T04:45:52;8.93;;;4.90;;
23228;SDS011;11783;50.350;6.576;2022-07-06T04:48:17;7.47;;;4.45;;
23228;SDS011;11783;50.350;6.576;2022-07-06T04:50:43;8.50;;;4.35;;
23228;SDS011;11783;50.350;6.576;2022-07-06T04:53:08;8.32;;;4.80;;
23228;SDS011;11783;50.350;6.576;2022-07-06T04:55:33;7.20;;;3.90;;
23228;SDS011;11783;50.350;6.576;2022-07-06T04:57:59;6.65;;;4.68;;
23228;SDS011;11783;50.350;6.576;2022-07-06T05:00:24;7.07;;;4.82;;
23228;SDS011;11783;50.350;6.576;2022-07-06T05:02:49;7.10;;;4.80;;
23228;SDS011;11783;50.350;6.576;2022-07-06T05:05:15;6.85;;;4.70;;
23228;SDS011;11783;50.350;6.576;2022-07-06T05:07:40;10.07;;;5.78;;
23228;SDS011;11783;50.350;6.576;2022-07-06T05:10:09;10.70;;;5.60;;
23228;SDS011;11783;50.350;6.576;2022-07-06T05:12:36;8.52;;;5.07;;
23228;SDS011;11783;50.350;6.576;2022-07-06T05:15:02;7.95;;;5.18;;
23228;SDS011;11783;50.350;6.576;2022-07-06T05:17:27;10.18;;;6.10;;
23228;SDS011;11783;50.350;6.576;2022-07-06T05:19:53;9.45;;;6.13;;
23228;SDS011;11783;50.350;6.576;2022-07-06T05:22:19;10.82;;;6.03;;
23228;SDS011;11783;50.350;6.576;2022-07-06T05:24:44;9.70;;;6.35;;
23228;SDS011;11783;50.350;6.576;2022-07-06T05:27:09;10.98;;;6.30;;
23228;SDS011;11783;50.350;6.576;2022-07-06T05:29:35;9.57;;;5.55;;
23228;SDS011;11783;50.350;6.576;2022-07-06T05:32:00;12.98;;;7.40;;
23228;SDS011;11783;50.350;6.576;2022-07-06T05:34:26;12.63;;;7.10;;
23228;SDS011;11783;50.350;6.576;2022-07-06T05:36:51;15.00;;;7.05;;
23228;SDS011;11783;50.350;6.576;2022-07-06T05:39:16;14.23;;;7.53;;
23228;SDS011;11783;50.350;6.576;2022-07-06T05:41:44;10.73;;;6.38;;
23228;SDS011;11783;50.350;6.576;2022-07-06T05:44:10;11.88;;;7.07;;
23228;SDS011;11783;50.350;6.576;2022-07-06T05:46:35;11.00;;;6.07;;
23228;SDS011;11783;50.350;6.576;2022-07-06T05:49:01;12.23;;;6.43;;
23228;SDS011;11783;50.350;6.576;2022-07-06T05:51:44;10.88;;;6.68;;
23228;SDS011;11783;50.350;6.576;2022-07-06T05:54:10;13.05;;;6.93;;
23228;SDS011;11783;50.350;6.576;2022-07-06T05:56:35;11.02;;;6.35;;
23228;SDS011;11783;50.350;6.576;2022-07-06T05:59:01;13.73;;;6.55;;
23228;SDS011;11783;50.350;6.576;2022-07-06T06:01:26;12.38;;;6.10;;
23228;SDS011;11783;50.350;6.576;2022-07-06T06:03:51;11.73;;;6.30;;
23228;SDS011;11783;50.350;6.576;2022-07-06T06:06:17;10.50;;;5.63;;
23228;SDS011;11783;50.350;6.576;2022-07-06T06:08:42;10.02;;;5.63;;
23228;SDS011;11783;50.350;6.576;2022-07-06T06:11:07;12.32;;;5.68;;
23228;SDS011;11783;50.350;6.576;2022-07-06T06:13:33;10.18;;;5.72;;
23228;SDS011;11783;50.350;6.576;2022-07-06T06:15:58;8.02;;;5.20;;
23228;SDS011;11783;50.350;6.576;2022-07-06T06:18:24;10.90;;;4.82;;
23228;SDS011;11783;50.350;6.576;2022-07-06T06:20:49;9.40;;;4.32;;
23228;SDS011;11783;50.350;6.576;2022-07-06T06:23:14;7.53;;;4.05;;
23228;SDS011;11783;50.350;6.576;2022-07-06T06:25:40;9.65;;;4.03;;
23228;SDS011;11783;50.350;6.576;2022-07-06T06:28:06;8.18;;;3.33;;
23228;SDS011;11783;50.350;6.576;2022-07-06T06:30:33;4.00;;;2.30;;
23228;SDS011;11783;50.350;6.576;2022-07-06T06:33:06;5.32;;;2.40;;
23228;SDS011;11783;50.350;6.576;2022-07-06T06:35:36;5.45;;;2.08;;
23228;SDS011;11783;50.350;6.576;2022-07-06T06:38:01;7.25;;;2.13;;
23228;SDS011;11783;50.350;6.576;2022-07-06T06:40:27;6.28;;;1.85;;
23228;SDS011;11783;50.350;6.576;2022-07-06T06:42:53;4.65;;;1.63;;
23228;SDS011;11783;50.350;6.576;2022-07-06T06:45:18;6.20;;;1.60;;
23228;SDS011;11783;50.350;6.576;2022-07-06T06:47:43;6.82;;;1.80;;
23228;SDS011;11783;50.350;6.576;2022-07-06T06:50:09;3.90;;;1.63;;
23228;SDS011;11783;50.350;6.576;2022-07-06T06:52:34;4.97;;;1.45;;
23228;SDS011;11783;50.350;6.576;2022-07-06T06:55:00;2.85;;;1.23;;
23228;SDS011;11783;50.350;6.576;2022-07-06T06:57:25;5.82;;;1.50;;
23228;SDS011;11783;50.350;6.576;2022-07-06T06:59:50;4.15;;;1.60;;
23228;SDS011;11783;50.350;6.576;2022-07-06T07:02:16;3.53;;;1.58;;
23228;SDS011;11783;50.350;6.576;2022-07-06T07:04:41;3.10;;;0.98;;
23228;SDS011;11783;50.350;6.576;2022-07-06T07:07:06;5.03;;;1.40;;
23228;SDS011;11783;50.350;6.576;2022-07-06T07:09:32;3.33;;;1.10;;
23228;SDS011;11783;50.350;6.576;2022-07-06T07:11:57;6.00;;;1.42;;
23228;SDS011;11783;50.350;6.576;2022-07-06T07:14:23;6.75;;;2.08;;
23228;SDS011;11783;50.350;6.576;2022-07-06T07:16:48;5.50;;;2.00;;
23228;SDS011;11783;50.350;6.576;2022-07-06T07:19:14;4.85;;;1.50;;
23228;SDS011;11783;50.350;6.576;2022-07-06T07:21:39;4.47;;;1.23;;
23228;SDS011;11783;50.350;6.576;2022-07-06T07:24:04;3.92;;;1.20;;
23228;SDS011;11783;50.350;6.576;2022-07-06T07:26:30;3.72;;;1.48;;
23228;SDS011;11783;50.350;6.576;2022-07-06T07:28:56;5.85;;;1.42;;
23228;SDS011;11783;50.350;6.576;2022-07-06T07:31:21;3.63;;;1.13;;
23228;SDS011;11783;50.350;6.576;2022-07-06T07:33:46;3.72;;;1.20;;
23228;SDS011;11783;50.350;6.576;2022-07-06T07:36:12;4.78;;;1.20;;
23228;SDS011;11783;50.350;6.576;2022-07-06T07:38:37;5.57;;;1.00;;
23228;SDS011;11783;50.350;6.576;2022-07-06T07:41:03;4.63;;;1.35;;
23228;SDS011;11783;50.350;6.576;2022-07-06T07:43:28;3.17;;;0.90;;
23228;SDS011;11783;50.350;6.576;2022-07-06T07:45:54;3.25;;;0.93;;
23228;SDS011;11783;50.350;6.576;2022-07-06T07:48:20;4.38;;;0.90;;
23228;SDS011;11783;50.350;6.576;2022-07-06T07:50:45;4.45;;;1.10;;
23228;SDS011;11783;50.350;6.576;2022-07-06T07:53:10;2.08;;;0.73;;
23228;SDS011;11783;50.350;6.576;2022-07-06T07:55:36;2.35;;;0.90;;
23228;SDS011;11783;50.350;6.576;2022-07-06T07:58:01;2.40;;;0.90;;
23228;SDS011;11783;50.350;6.576;2022-07-06T08:00:27;3.08;;;1.05;;
23228;SDS011;11783;50.350;6.576;2022-07-06T08:02:53;2.60;;;1.00;;
23228;SDS011;11783;50.350;6.576;2022-07-06T08:05:19;3.70;;;1.00;;
23228;SDS011;11783;50.350;6.576;2022-07-06T08:07:45;2.75;;;1.10;;
23228;SDS011;11783;50.350;6.576;2022-07-06T08:10:10;2.75;;;0.93;;
23228;SDS011;11783;50.350;6.576;2022-07-06T08:12:36;5.65;;;1.20;;
23228;SDS011;11783;50.350;6.576;2022-07-06T08:15:02;2.25;;;1.00;;
23228;SDS011;11783;50.350;6.576;2022-07-06T08:17:29;3.13;;;1.00;;
23228;SDS011;11783;50.350;6.576;2022-07-06T08:19:55;3.72;;;0.80;;
23228;SDS011;11783;50.350;6.576;2022-07-06T08:22:21;2.92;;;1.00;;
23228;SDS011;11783;50.350;6.576;2022-07-06T08:24:47;3.53;;;1.17;;
23228;SDS011;11783;50.350;6.576;2022-07-06T08:27:12;4.32;;;1.25;;
23228;SDS011;11783;50.350;6.576;2022-07-06T08:29:37;5.15;;;1.20;;
23228;SDS011;11783;50.350;6.576;2022-07-06T08:32:03;3.30;;;1.10;;
23228;SDS011;11783;50.350;6.576;2022-07-06T08:34:29;2.63;;;1.20;;
23228;SDS011;11783;50.350;6.576;2022-07-06T08:36:54;2.40;;;0.90;;
23228;SDS011;11783;50.350;6.576;2022-07-06T08:39:19;2.65;;;1.00;;
23228;SDS011;11783;50.350;6.576;2022-07-06T08:41:45;2.53;;;0.90;;
23228;SDS011;11783;50.350;6.576;2022-07-06T08:44:13;3.38;;;0.90;;
23228;SDS011;11783;50.350;6.576;2022-07-06T08:46:40;2.28;;;0.80;;
23228;SDS011;11783;50.350;6.576;2022-07-06T08:49:06;2.45;;;0.68;;
23228;SDS011;11783;50.350;6.576;2022-07-06T08:51:34;3.40;;;0.90;;
23228;SDS011;11783;50.350;6.576;2022-07-06T08:54:01;3.88;;;1.10;;
23228;SDS011;11783;50.350;6.576;2022-07-06T08:56:27;3.42;;;0.80;;
23228;SDS011;11783;50.350;6.576;2022-07-06T08:58:54;3.13;;;0.80;;
23228;SDS011;11783;50.350;6.576;2022-07-06T09:01:19;4.05;;;0.90;;
23228;SDS011;11783;50.350;6.576;2022-07-06T09:03:46;3.60;;;0.80;;
23228;SDS011;11783;50.350;6.576;2022-07-06T09:06:16;2.88;;;0.80;;
23228;SDS011;11783;50.350;6.576;2022-07-06T09:08:44;5.10;;;0.95;;
23228;SDS011;11783;50.350;6.576;2022-07-06T09:11:11;2.40;;;0.70;;
23228;SDS011;11783;50.350;6.576;2022-07-06T09:13:37;2.25;;;0.90;;
23228;SDS011;11783;50.350;6.576;2022-07-06T09:16:08;4.40;;;1.10;;
23228;SDS011;11783;50.350;6.576;2022-07-06T09:18:38;3.00;;;0.80;;
23228;SDS011;11783;50.350;6.576;2022-07-06T09:21:04;2.58;;;0.90;;
23228;SDS011;11783;50.350;6.576;2022-07-06T09:23:32;2.25;;;0.90;;
23228;SDS011;11783;50.350;6.576;2022-07-06T09:26:01;2.65;;;0.80;;
23228;SDS011;11783;50.350;6.576;2022-07-06T09:28:43;3.72;;;0.90;;
23228;SDS011;11783;50.350;6.576;2022-07-06T09:31:09;3.60;;;0.90;;
23228;SDS011;11783;50.350;6.576;2022-07-06T09:33:35;2.55;;;0.85;;
23228;SDS011;11783;50.350;6.576;2022-07-06T09:36:00;3.47;;;0.93;;
23228;SDS011;11783;50.350;6.576;2022-07-06T09:38:27;3.22;;;0.90;;
23228;SDS011;11783;50.350;6.576;2022-07-06T09:40:53;4.32;;;0.85;;
23228;SDS011;11783;50.350;6.576;2022-07-06T09:43:19;3.55;;;0.85;;
23228;SDS011;11783;50.350;6.576;2022-07-06T09:45:56;3.45;;;0.73;;
23228;SDS011;11783;50.350;6.576;2022-07-06T09:48:23;3.53;;;0.90;;
23228;SDS011;11783;50.350;6.576;2022-07-06T09:50:56;2.13;;;0.70;;
23228;SDS011;11783;50.350;6.576;2022-07-06T09:53:24;3.13;;;1.00;;
23228;SDS011;11783;50.350;6.576;2022-07-06T09:55:51;3.10;;;0.75;;
23228;SDS011;11783;50.350;6.576;2022-07-06T09:58:20;2.78;;;0.90;;
23228;SDS011;11783;50.350;6.576;2022-07-06T10:00:47;3.78;;;0.95;;
23228;SDS011;11783;50.350;6.576;2022-07-06T10:03:14;5.28;;;1.17;;
23228;SDS011;11783;50.350;6.576;2022-07-06T10:05:42;3.33;;;0.90;;
23228;SDS011;11783;50.350;6.576;2022-07-06T10:08:12;2.33;;;0.90;;
23228;SDS011;11783;50.350;6.576;2022-07-06T10:10:38;2.08;;;0.77;;
23228;SDS011;11783;50.350;6.576;2022-07-06T10:13:04;3.70;;;0.80;;
23228;SDS011;11783;50.350;6.576;2022-07-06T10:15:34;3.97;;;0.88;;
23228;SDS011;11783;50.350;6.576;2022-07-06T10:18:03;3.13;;;0.90;;
23228;SDS011;11783;50.350;6.576;2022-07-06T10:20:31;3.25;;;0.90;;
23228;SDS011;11783;50.350;6.576;2022-07-06T10:22:59;3.35;;;0.98;;
23228;SDS011;11783;50.350;6.576;2022-07-06T10:25:26;4.20;;;0.93;;
23228;SDS011;11783;50.350;6.576;2022-07-06T10:27:52;3.33;;;0.90;;
23228;SDS011;11783;50.350;6.576;2022-07-06T10:30:19;4.80;;;0.93;;
23228;SDS011;11783;50.350;6.576;2022-07-06T10:32:46;3.47;;;1.00;;
23228;SDS011;11783;50.350;6.576;2022-07-06T10:35:13;3.85;;;1.00;;
23228;SDS011;11783;50.350;6.576;2022-07-06T10:37:39;2.95;;;0.88;;
23228;SDS011;11783;50.350;6.576;2022-07-06T10:40:05;3.22;;;0.85;;
23228;SDS011;11783;50.350;6.576;2022-07-06T10:43:00;2.80;;;1.10;;
23228;SDS011;11783;50.350;6.576;2022-07-06T10:50:35;3.42;;;1.00;;
23228;SDS011;11783;50.350;6.576;2022-07-06T10:53:01;3.65;;;1.00;;
23228;SDS011;11783;50.350;6.576;2022-07-06T10:55:36;3.70;;;1.00;;
23228;SDS011;11783;50.350;6.576;2022-07-06T10:58:04;3.90;;;0.80;;
23228;SDS011;11783;50.350;6.576;2022-07-06T11:00:42;2.42;;;0.80;;
23228;SDS011;11783;50.350;6.576;2022-07-06T11:06:03;2.40;;;0.90;;
23228;SDS011;11783;50.350;6.576;2022-07-06T11:09:08;2.70;;;0.80;;
23228;SDS011;11783;50.350;6.576;2022-07-06T11:14:03;4.32;;;1.02;;
23228;SDS011;11783;50.350;6.576;2022-07-06T11:21:49;2.95;;;0.80;;
23228;SDS011;11783;50.350;6.576;2022-07-06T11:24:25;4.35;;;0.93;;
23228;SDS011;11783;50.350;6.576;2022-07-06T11:26:53;3.83;;;0.88;;
23228;SDS011;11783;50.350;6.576;2022-07-06T11:29:21;2.88;;;0.98;;
23228;SDS011;11783;50.350;6.576;2022-07-06T11:31:48;2.03;;;0.80;;
23228;SDS011;11783;50.350;6.576;2022-07-06T11:34:18;2.78;;;0.70;;
23228;SDS011;11783;50.350;6.576;2022-07-06T11:36:45;3.28;;;0.65;;
23228;SDS011;11783;50.350;6.576;2022-07-06T11:39:10;3.22;;;0.80;;
23228;SDS011;11783;50.350;6.576;2022-07-06T11:41:36;3.63;;;0.80;;
23228;SDS011;11783;50.350;6.576;2022-07-06T11:44:02;2.83;;;0.80;;
23228;SDS011;11783;50.350;6.576;2022-07-06T11:48:57;2.65;;;0.70;;
23228;SDS011;11783;50.350;6.576;2022-07-06T11:51:28;4.45;;;0.70;;
23228;SDS011;11783;50.350;6.576;2022-07-06T11:53:56;3.45;;;0.70;;
23228;SDS011;11783;50.350;6.576;2022-07-06T11:56:24;2.22;;;0.70;;
23228;SDS011;11783;50.350;6.576;2022-07-06T11:58:52;2.88;;;0.70;;
23228;SDS011;11783;50.350;6.576;2022-07-06T12:01:20;3.08;;;0.70;;
23228;SDS011;11783;50.350;6.576;2022-07-06T12:03:47;3.72;;;0.70;;
23228;SDS011;11783;50.350;6.576;2022-07-06T12:06:22;3.90;;;0.60;;
23228;SDS011;11783;50.350;6.576;2022-07-06T12:08:51;2.58;;;0.60;;
23228;SDS011;11783;50.350;6.576;2022-07-06T12:11:27;2.15;;;0.70;;
23228;SDS011;11783;50.350;6.576;2022-07-06T12:13:55;4.18;;;0.70;;
23228;SDS011;11783;50.350;6.576;2022-07-06T12:16:28;3.55;;;0.80;;
23228;SDS011;11783;50.350;6.576;2022-07-06T12:18:59;4.50;;;0.60;;
23228;SDS011;11783;50.350;6.576;2022-07-06T12:21:25;3.78;;;0.77;;
23228;SDS011;11783;50.350;6.576;2022-07-06T12:23:51;4.20;;;0.70;;
23228;SDS011;11783;50.350;6.576;2022-07-06T12:26:19;3.10;;;0.80;;
